sensor_id;sensor_type;location;lat;lon;timestamp;pressure;altitude;pressure_sealevel;temperature;humidity
75627;BME280;64211;49.404;11.034;2022-11-14T00:01:08;98247.22;;;1.70;79.86
75627;BME280;64211;49.404;11.034;2022-11-14T00:03:34;98251.81;;;1.68;80.26
75627;BME280;64211;49.404;11.034;2022-11-14T00:06:04;98248.53;;;1.66;80.12
75627;BME280;64211;49.404;11.034;2022-11-14T00:08:30;98248.53;;;1.66;79.82
75627;BME280;64211;49.404;11.034;2022-11-14T00:10:57;98253.94;;;1.64;79.76
75627;BME280;64211;49.404;11.034;2022-11-14T00:13:22;98250.31;;;1.65;79.57
75627;BME280;64211;49.404;11.034;2022-11-14T00:15:50;98246.03;;;1.64;79.79
75627;BME280;64211;49.404;11.034;2022-11-14T00:18:19;98248.53;;;1.66;79.62
75627;BME280;64211;49.404;11.034;2022-11-14T00:20:49;98246.03;;;1.64;79.70
75627;BME280;64211;49.404;11.034;2022-11-14T00:23:15;98239.97;;;1.64;79.62
75627;BME280;64211;49.404;11.034;2022-11-14T00:25:43;98242.75;;;1.62;79.48
75627;BME280;64211;49.404;11.034;2022-11-14T00:28:09;98233.88;;;1.63;79.79
75627;BME280;64211;49.404;11.034;2022-11-14T00:30:35;98230.44;;;1.63;79.65
75627;BME280;64211;49.404;11.034;2022-11-14T00:33:01;98230.09;;;1.58;79.97
75627;BME280;64211;49.404;11.034;2022-11-14T00:35:26;98227.63;;;1.56;79.87
75627;BME280;64211;49.404;11.034;2022-11-14T00:37:52;98225.16;;;1.54;79.99
75627;BME280;64211;49.404;11.034;2022-11-14T00:40:18;98224.00;;;1.49;79.97
75627;BME280;64211;49.404;11.034;2022-11-14T00:42:44;98218.22;;;1.45;80.11
75627;BME280;64211;49.404;11.034;2022-11-14T00:45:10;98216.59;;;1.44;80.80
75627;BME280;64211;49.404;11.034;2022-11-14T00:47:36;98217.41;;;1.45;79.89
75627;BME280;64211;49.404;11.034;2022-11-14T00:50:02;98207.72;;;1.45;79.88
75627;BME280;64211;49.404;11.034;2022-11-14T00:52:28;98211.31;;;1.44;79.88
75627;BME280;64211;49.404;11.034;2022-11-14T00:54:54;98214.13;;;1.43;79.79
75627;BME280;64211;49.404;11.034;2022-11-14T00:57:20;98208.84;;;1.43;79.87
75627;BME280;64211;49.404;11.034;2022-11-14T00:59:45;98211.78;;;1.40;80.04
75627;BME280;64211;49.404;11.034;2022-11-14T01:02:11;98205.19;;;1.36;80.20
75627;BME280;64211;49.404;11.034;2022-11-14T01:04:37;98210.25;;;1.29;81.18
75627;BME280;64211;49.404;11.034;2022-11-14T01:07:03;98216.97;;;1.23;80.51
75627;BME280;64211;49.404;11.034;2022-11-14T01:09:28;98212.19;;;1.19;80.58
75627;BME280;64211;49.404;11.034;2022-11-14T01:11:54;98209.69;;;1.17;80.89
75627;BME280;64211;49.404;11.034;2022-11-14T01:14:20;98208.38;;;1.13;81.53
75627;BME280;64211;49.404;11.034;2022-11-14T01:16:46;98202.44;;;1.11;80.70
75627;BME280;64211;49.404;11.034;2022-11-14T01:19:11;98195.91;;;1.15;80.81
75627;BME280;64211;49.404;11.034;2022-11-14T01:21:37;98199.88;;;1.19;80.64
75627;BME280;64211;49.404;11.034;2022-11-14T01:24:03;98200.00;;;1.18;81.03
75627;BME280;64211;49.404;11.034;2022-11-14T01:26:29;98207.06;;;1.17;80.78
75627;BME280;64211;49.404;11.034;2022-11-14T01:28:55;98197.38;;;1.18;81.58
75627;BME280;64211;49.404;11.034;2022-11-14T01:31:22;98188.84;;;1.16;80.54
75627;BME280;64211;49.404;11.034;2022-11-14T01:33:50;98197.88;;;1.13;80.70
75627;BME280;64211;49.404;11.034;2022-11-14T01:36:16;98196.22;;;1.12;80.90
75627;BME280;64211;49.404;11.034;2022-11-14T01:38:42;98193.91;;;1.09;81.33
75627;BME280;64211;49.404;11.034;2022-11-14T01:41:08;98190.47;;;1.09;80.61
75627;BME280;64211;49.404;11.034;2022-11-14T01:43:36;98184.53;;;1.07;81.06
75627;BME280;64211;49.404;11.034;2022-11-14T01:48:59;98174.16;;;0.97;81.07
75627;BME280;64211;49.404;11.034;2022-11-14T01:51:32;98184.50;;;0.99;80.54
75627;BME280;64211;49.404;11.034;2022-11-14T01:54:01;98181.41;;;1.03;80.49
75627;BME280;64211;49.404;11.034;2022-11-14T01:56:32;98176.66;;;1.07;80.18
75627;BME280;64211;49.404;11.034;2022-11-14T01:59:06;98186.34;;;1.06;80.85
75627;BME280;64211;49.404;11.034;2022-11-14T02:01:34;98178.16;;;1.09;80.20
75627;BME280;64211;49.404;11.034;2022-11-14T02:04:03;98173.72;;;1.10;80.14
75627;BME280;64211;49.404;11.034;2022-11-14T02:06:32;98172.06;;;1.09;79.79
75627;BME280;64211;49.404;11.034;2022-11-14T02:09:01;98175.84;;;1.06;80.34
75627;BME280;64211;49.404;11.034;2022-11-14T02:11:29;98178.63;;;1.05;80.08
75627;BME280;64211;49.404;11.034;2022-11-14T02:13:56;98177.13;;;1.02;80.67
75627;BME280;64211;49.404;11.034;2022-11-14T02:16:25;98165.81;;;1.02;80.19
75627;BME280;64211;49.404;11.034;2022-11-14T02:18:51;98176.63;;;0.99;80.29
75627;BME280;64211;49.404;11.034;2022-11-14T02:21:16;98166.97;;;0.99;80.23
75627;BME280;64211;49.404;11.034;2022-11-14T02:23:42;98172.38;;;0.98;80.71
75627;BME280;64211;49.404;11.034;2022-11-14T02:26:08;98168.25;;;0.95;80.46
75627;BME280;64211;49.404;11.034;2022-11-14T02:28:34;98171.00;;;0.93;80.49
75627;BME280;64211;49.404;11.034;2022-11-14T02:31:00;98167.56;;;0.93;80.29
75627;BME280;64211;49.404;11.034;2022-11-14T02:33:26;98153.75;;;0.91;80.33
75627;BME280;64211;49.404;11.034;2022-11-14T02:35:52;98154.91;;;0.88;80.14
75627;BME280;64211;49.404;11.034;2022-11-14T02:38:18;98161.81;;;0.89;79.98
75627;BME280;64211;49.404;11.034;2022-11-14T02:40:44;98160.00;;;0.90;79.96
75627;BME280;64211;49.404;11.034;2022-11-14T02:43:10;98158.19;;;0.90;80.37
75627;BME280;64211;49.404;11.034;2022-11-14T02:45:36;98162.63;;;0.90;79.96
75627;BME280;64211;49.404;11.034;2022-11-14T02:48:02;98152.44;;;0.87;80.45
75627;BME280;64211;49.404;11.034;2022-11-14T02:50:28;98157.19;;;0.83;79.76
75627;BME280;64211;49.404;11.034;2022-11-14T02:52:54;98152.25;;;0.80;80.37
75627;BME280;64211;49.404;11.034;2022-11-14T02:55:20;98155.84;;;0.79;80.47
75627;BME280;64211;49.404;11.034;2022-11-14T02:57:46;98163.72;;;0.79;80.14
75627;BME280;64211;49.404;11.034;2022-11-14T03:00:12;98162.25;;;0.77;81.23
75627;BME280;64211;49.404;11.034;2022-11-14T03:02:40;98167.97;;;0.72;81.57
75627;BME280;64211;49.404;11.034;2022-11-14T03:05:06;98165.63;;;0.69;81.10
75627;BME280;64211;49.404;11.034;2022-11-14T03:07:32;98163.00;;;0.69;81.99
75627;BME280;64211;49.404;11.034;2022-11-14T03:09:58;98158.88;;;0.67;81.88
75627;BME280;64211;49.404;11.034;2022-11-14T03:12:24;98166.59;;;0.68;81.79
75627;BME280;64211;49.404;11.034;2022-11-14T03:14:50;98162.16;;;0.69;81.48
75627;BME280;64211;49.404;11.034;2022-11-14T03:17:15;98166.75;;;0.67;81.98
75627;BME280;64211;49.404;11.034;2022-11-14T03:19:41;98176.59;;;0.65;81.81
75627;BME280;64211;49.404;11.034;2022-11-14T03:22:07;98163.63;;;0.63;81.86
75627;BME280;64211;49.404;11.034;2022-11-14T03:24:33;98156.72;;;0.62;81.19
75627;BME280;64211;49.404;11.034;2022-11-14T03:27:01;98157.69;;;0.61;81.27
75627;BME280;64211;49.404;11.034;2022-11-14T03:29:27;98151.78;;;0.59;82.21
75627;BME280;64211;49.404;11.034;2022-11-14T03:31:53;98151.63;;;0.60;81.72
75627;BME280;64211;49.404;11.034;2022-11-14T03:34:19;98144.91;;;0.58;82.15
75627;BME280;64211;49.404;11.034;2022-11-14T03:36:44;98144.38;;;0.54;82.29
75627;BME280;64211;49.404;11.034;2022-11-14T03:39:10;98128.78;;;0.53;82.03
75627;BME280;64211;49.404;11.034;2022-11-14T03:41:36;98125.03;;;0.55;81.60
75627;BME280;64211;49.404;11.034;2022-11-14T03:44:02;98123.22;;;0.56;81.95
75627;BME280;64211;49.404;11.034;2022-11-14T03:46:27;98125.34;;;0.52;83.36
75627;BME280;64211;49.404;11.034;2022-11-14T03:48:53;98137.97;;;0.49;82.31
75627;BME280;64211;49.404;11.034;2022-11-14T03:51:19;98142.38;;;0.48;82.74
75627;BME280;64211;49.404;11.034;2022-11-14T03:53:45;98149.56;;;0.46;84.24
75627;BME280;64211;49.404;11.034;2022-11-14T03:56:11;98155.94;;;0.44;85.45
75627;BME280;64211;49.404;11.034;2022-11-14T03:58:37;98163.66;;;0.45;83.76
75627;BME280;64211;49.404;11.034;2022-11-14T04:01:03;98159.94;;;0.48;82.73
75627;BME280;64211;49.404;11.034;2022-11-14T04:03:29;98157.97;;;0.50;82.85
75627;BME280;64211;49.404;11.034;2022-11-14T04:05:54;98151.91;;;0.49;84.29
75627;BME280;64211;49.404;11.034;2022-11-14T04:08:20;98143.50;;;0.46;83.58
75627;BME280;64211;49.404;11.034;2022-11-14T04:10:47;98148.56;;;0.47;82.56
75627;BME280;64211;49.404;11.034;2022-11-14T04:13:13;98152.88;;;0.48;83.37
75627;BME280;64211;49.404;11.034;2022-11-14T04:15:39;98157.16;;;0.49;83.73
75627;BME280;64211;49.404;11.034;2022-11-14T04:18:05;98162.25;;;0.51;83.16
75627;BME280;64211;49.404;11.034;2022-11-14T04:20:31;98150.25;;;0.48;83.35
75627;BME280;64211;49.404;11.034;2022-11-14T04:22:57;98156.16;;;0.50;83.47
75627;BME280;64211;49.404;11.034;2022-11-14T04:25:23;98161.09;;;0.53;83.91
75627;BME280;64211;49.404;11.034;2022-11-14T04:27:48;98158.31;;;0.55;82.81
75627;BME280;64211;49.404;11.034;2022-11-14T04:30:14;98150.13;;;0.58;82.42
75627;BME280;64211;49.404;11.034;2022-11-14T04:32:40;98142.28;;;0.58;82.14
75627;BME280;64211;49.404;11.034;2022-11-14T04:35:06;98141.75;;;0.54;83.13
75627;BME280;64211;49.404;11.034;2022-11-14T04:37:32;98140.13;;;0.53;83.91
75627;BME280;64211;49.404;11.034;2022-11-14T04:39:57;98141.09;;;0.52;84.35
75627;BME280;64211;49.404;11.034;2022-11-14T04:42:25;98149.94;;;0.51;85.30
75627;BME280;64211;49.404;11.034;2022-11-14T04:44:51;98139.44;;;0.51;86.01
75627;BME280;64211;49.404;11.034;2022-11-14T04:47:17;98143.88;;;0.51;88.32
75627;BME280;64211;49.404;11.034;2022-11-14T04:49:42;98146.34;;;0.52;87.44
75627;BME280;64211;49.404;11.034;2022-11-14T04:52:08;98145.88;;;0.57;85.97
75627;BME280;64211;49.404;11.034;2022-11-14T04:54:34;98147.03;;;0.63;85.11
75627;BME280;64211;49.404;11.034;2022-11-14T04:57:00;98145.75;;;0.67;85.24
75627;BME280;64211;49.404;11.034;2022-11-14T04:59:25;98138.38;;;0.70;83.62
75627;BME280;64211;49.404;11.034;2022-11-14T05:01:51;98138.25;;;0.72;83.33
75627;BME280;64211;49.404;11.034;2022-11-14T05:04:17;98138.09;;;0.73;83.23
75627;BME280;64211;49.404;11.034;2022-11-14T05:06:43;98140.06;;;0.71;83.13
75627;BME280;64211;49.404;11.034;2022-11-14T05:09:09;98142.16;;;0.68;84.01
75627;BME280;64211;49.404;11.034;2022-11-14T05:11:34;98147.56;;;0.66;83.74
75627;BME280;64211;49.404;11.034;2022-11-14T05:14:00;98140.50;;;0.67;83.28
75627;BME280;64211;49.404;11.034;2022-11-14T05:16:26;98152.66;;;0.68;82.64
75627;BME280;64211;49.404;11.034;2022-11-14T05:18:52;98155.13;;;0.69;82.79
75627;BME280;64211;49.404;11.034;2022-11-14T05:21:18;98159.69;;;0.67;83.51
75627;BME280;64211;49.404;11.034;2022-11-14T05:23:44;98158.88;;;0.67;83.61
75627;BME280;64211;49.404;11.034;2022-11-14T05:26:13;98153.63;;;0.67;85.41
75627;BME280;64211;49.404;11.034;2022-11-14T05:28:39;98159.69;;;0.67;83.81
75627;BME280;64211;49.404;11.034;2022-11-14T05:31:06;98160.22;;;0.71;83.82
75627;BME280;64211;49.404;11.034;2022-11-14T05:33:33;98154.97;;;0.71;84.08
75627;BME280;64211;49.404;11.034;2022-11-14T05:36:09;98153.03;;;0.73;84.42
75627;BME280;64211;49.404;11.034;2022-11-14T05:38:35;98159.25;;;0.72;85.22
75627;BME280;64211;49.404;11.034;2022-11-14T05:41:06;98166.16;;;0.73;87.53
75627;BME280;64211;49.404;11.034;2022-11-14T05:43:33;98159.78;;;0.75;86.08
75627;BME280;64211;49.404;11.034;2022-11-14T05:45:59;98157.81;;;0.77;85.66
75627;BME280;64211;49.404;11.034;2022-11-14T05:48:26;98170.47;;;0.82;85.20
75627;BME280;64211;49.404;11.034;2022-11-14T05:50:56;98173.44;;;0.87;85.78
75627;BME280;64211;49.404;11.034;2022-11-14T05:53:22;98173.13;;;0.90;85.77
75627;BME280;64211;49.404;11.034;2022-11-14T05:55:48;98170.50;;;0.90;87.43
75627;BME280;64211;49.404;11.034;2022-11-14T05:58:14;98161.63;;;0.91;87.63
75627;BME280;64211;49.404;11.034;2022-11-14T06:00:40;98168.53;;;0.92;89.38
75627;BME280;64211;49.404;11.034;2022-11-14T06:03:14;98163.94;;;0.94;87.60
75627;BME280;64211;49.404;11.034;2022-11-14T06:05:40;98156.28;;;1.01;88.65
75627;BME280;64211;49.404;11.034;2022-11-14T06:08:06;98163.53;;;1.07;87.50
75627;BME280;64211;49.404;11.034;2022-11-14T06:10:33;98166.66;;;1.10;86.24
75627;BME280;64211;49.404;11.034;2022-11-14T06:13:00;98180.81;;;1.17;86.94
75627;BME280;64211;49.404;11.034;2022-11-14T06:15:26;98192.66;;;1.21;85.54
75627;BME280;64211;49.404;11.034;2022-11-14T06:17:52;98192.84;;;1.28;86.77
75627;BME280;64211;49.404;11.034;2022-11-14T06:20:18;98183.19;;;1.37;87.71
75627;BME280;64211;49.404;11.034;2022-11-14T06:22:44;98176.34;;;1.44;89.02
75627;BME280;64211;49.404;11.034;2022-11-14T06:25:10;98168.31;;;1.53;87.70
75627;BME280;64211;49.404;11.034;2022-11-14T06:27:36;98172.59;;;1.63;88.77
75627;BME280;64211;49.404;11.034;2022-11-14T06:30:02;98173.78;;;1.68;90.17
75627;BME280;64211;49.404;11.034;2022-11-14T06:32:28;98185.44;;;1.74;90.33
75627;BME280;64211;49.404;11.034;2022-11-14T06:34:53;98189.72;;;1.83;90.47
75627;BME280;64211;49.404;11.034;2022-11-14T06:37:19;98189.59;;;1.93;90.31
75627;BME280;64211;49.404;11.034;2022-11-14T06:39:45;98191.41;;;2.00;90.88
75627;BME280;64211;49.404;11.034;2022-11-14T06:42:11;98182.53;;;2.09;90.76
75627;BME280;64211;49.404;11.034;2022-11-14T06:44:37;98179.78;;;2.19;90.03
75627;BME280;64211;49.404;11.034;2022-11-14T06:47:02;98186.66;;;2.28;89.45
75627;BME280;64211;49.404;11.034;2022-11-14T06:49:28;98199.81;;;2.36;89.33
75627;BME280;64211;49.404;11.034;2022-11-14T06:51:54;98206.91;;;2.44;88.93
75627;BME280;64211;49.404;11.034;2022-11-14T06:54:19;98204.75;;;2.56;88.59
75627;BME280;64211;49.404;11.034;2022-11-14T06:56:45;98185.66;;;2.70;88.43
75627;BME280;64211;49.404;11.034;2022-11-14T06:59:11;98182.50;;;2.83;88.08
75627;BME280;64211;49.404;11.034;2022-11-14T07:01:37;98194.50;;;2.93;87.63
75627;BME280;64211;49.404;11.034;2022-11-14T07:04:03;98207.84;;;3.00;87.34
75627;BME280;64211;49.404;11.034;2022-11-14T07:06:29;98199.06;;;3.07;86.69
75627;BME280;64211;49.404;11.034;2022-11-14T07:08:56;98195.44;;;3.17;86.72
75627;BME280;64211;49.404;11.034;2022-11-14T07:11:24;98186.50;;;3.26;86.36
75627;BME280;64211;49.404;11.034;2022-11-14T07:13:56;98184.03;;;3.32;86.37
75627;BME280;64211;49.404;11.034;2022-11-14T07:16:26;98188.97;;;3.35;85.68
75627;BME280;64211;49.404;11.034;2022-11-14T07:18:55;98214.97;;;3.38;85.80
75627;BME280;64211;49.404;11.034;2022-11-14T07:21:21;98226.53;;;3.37;85.71
75627;BME280;64211;49.404;11.034;2022-11-14T07:23:48;98236.25;;;3.37;85.66
75627;BME280;64211;49.404;11.034;2022-11-14T07:26:14;98242.16;;;3.39;86.05
75627;BME280;64211;49.404;11.034;2022-11-14T07:28:41;98235.25;;;3.38;86.13
75627;BME280;64211;49.404;11.034;2022-11-14T07:31:12;98220.41;;;3.37;85.82
75627;BME280;64211;49.404;11.034;2022-11-14T07:33:39;98233.94;;;3.34;86.12
75627;BME280;64211;49.404;11.034;2022-11-14T07:36:06;98227.34;;;3.38;85.87
75627;BME280;64211;49.404;11.034;2022-11-14T07:38:33;98239.53;;;3.39;86.01
75627;BME280;64211;49.404;11.034;2022-11-14T07:41:05;98247.09;;;3.42;85.81
75627;BME280;64211;49.404;11.034;2022-11-14T07:43:31;98243.94;;;3.47;86.51
75627;BME280;64211;49.404;11.034;2022-11-14T07:46:01;98230.88;;;3.61;88.42
75627;BME280;64211;49.404;11.034;2022-11-14T07:48:28;98223.25;;;3.66;85.63
75627;BME280;64211;49.404;11.034;2022-11-14T07:51:02;98210.19;;;3.73;85.02
75627;BME280;64211;49.404;11.034;2022-11-14T07:53:28;98207.38;;;3.83;85.54
75627;BME280;64211;49.404;11.034;2022-11-14T07:55:55;98203.22;;;3.88;85.79
75627;BME280;64211;49.404;11.034;2022-11-14T07:58:21;98199.22;;;3.92;85.17
75627;BME280;64211;49.404;11.034;2022-11-14T08:00:47;98195.88;;;3.98;84.74
75627;BME280;64211;49.404;11.034;2022-11-14T08:03:12;98198.66;;;4.05;84.92
75627;BME280;64211;49.404;11.034;2022-11-14T08:05:38;98197.78;;;4.13;84.51
75627;BME280;64211;49.404;11.034;2022-11-14T08:08:04;98197.06;;;4.19;84.93
75627;BME280;64211;49.404;11.034;2022-11-14T08:10:30;98193.72;;;4.25;84.79
75627;BME280;64211;49.404;11.034;2022-11-14T08:13:09;98196.66;;;4.30;84.73
75627;BME280;64211;49.404;11.034;2022-11-14T08:15:55;98204.69;;;4.37;84.64
75627;BME280;64211;49.404;11.034;2022-11-14T08:18:21;98202.97;;;4.44;84.23
75627;BME280;64211;49.404;11.034;2022-11-14T08:20:47;98189.91;;;4.50;84.17
75627;BME280;64211;49.404;11.034;2022-11-14T08:23:13;98196.56;;;4.61;83.27
75627;BME280;64211;49.404;11.034;2022-11-14T08:25:39;98188.28;;;4.64;83.89
75627;BME280;64211;49.404;11.034;2022-11-14T08:28:05;98191.03;;;4.71;83.09
75627;BME280;64211;49.404;11.034;2022-11-14T08:30:31;98183.50;;;4.82;82.80
75627;BME280;64211;49.404;11.034;2022-11-14T08:33:00;98188.44;;;4.85;82.79
75627;BME280;64211;49.404;11.034;2022-11-14T08:35:26;98183.22;;;4.92;83.35
75627;BME280;64211;49.404;11.034;2022-11-14T08:37:52;98180.53;;;5.00;82.48
75627;BME280;64211;49.404;11.034;2022-11-14T08:40:18;98187.34;;;5.09;82.42
75627;BME280;64211;49.404;11.034;2022-11-14T08:42:43;98182.44;;;5.21;82.49
75627;BME280;64211;49.404;11.034;2022-11-14T08:45:09;98178.50;;;5.32;81.95
75627;BME280;64211;49.404;11.034;2022-11-14T08:47:35;98167.00;;;5.39;82.41
75627;BME280;64211;49.404;11.034;2022-11-14T08:50:01;98177.03;;;5.44;82.01
75627;BME280;64211;49.404;11.034;2022-11-14T08:52:27;98181.22;;;5.53;81.69
75627;BME280;64211;49.404;11.034;2022-11-14T08:54:52;98182.75;;;5.62;81.70
75627;BME280;64211;49.404;11.034;2022-11-14T08:57:18;98185.94;;;5.72;81.33
75627;BME280;64211;49.404;11.034;2022-11-14T08:59:44;98189.28;;;5.81;80.73
75627;BME280;64211;49.404;11.034;2022-11-14T09:02:11;98201.28;;;5.92;80.38
75627;BME280;64211;49.404;11.034;2022-11-14T09:04:38;98187.03;;;5.93;80.67
75627;BME280;64211;49.404;11.034;2022-11-14T09:07:05;98190.56;;;6.00;80.50
75627;BME280;64211;49.404;11.034;2022-11-14T09:09:31;98185.75;;;6.10;79.71
75627;BME280;64211;49.404;11.034;2022-11-14T09:11:57;98185.09;;;6.23;80.54
75627;BME280;64211;49.404;11.034;2022-11-14T09:14:22;98191.69;;;6.33;79.43
75627;BME280;64211;49.404;11.034;2022-11-14T09:16:49;98184.91;;;6.45;79.44
75627;BME280;64211;49.404;11.034;2022-11-14T09:19:14;98176.63;;;6.55;78.80
75627;BME280;64211;49.404;11.034;2022-11-14T09:21:40;98169.53;;;6.62;78.58
75627;BME280;64211;49.404;11.034;2022-11-14T09:24:06;98178.81;;;6.73;78.64
75627;BME280;64211;49.404;11.034;2022-11-14T09:26:33;98172.53;;;6.81;77.64
75627;BME280;64211;49.404;11.034;2022-11-14T09:28:59;98177.50;;;6.90;77.48
75627;BME280;64211;49.404;11.034;2022-11-14T09:31:26;98181.84;;;6.98;77.72
75627;BME280;64211;49.404;11.034;2022-11-14T09:33:52;98191.28;;;7.07;77.07
75627;BME280;64211;49.404;11.034;2022-11-14T09:36:17;98191.75;;;7.17;77.38
75627;BME280;64211;49.404;11.034;2022-11-14T09:38:44;98191.81;;;7.30;77.59
75627;BME280;64211;49.404;11.034;2022-11-14T09:41:26;98206.19;;;7.43;76.02
75627;BME280;64211;49.404;11.034;2022-11-14T09:44:24;98197.25;;;7.50;74.98
75627;BME280;64211;49.404;11.034;2022-11-14T09:46:58;98190.78;;;7.59;75.68
75627;BME280;64211;49.404;11.034;2022-11-14T09:49:40;98189.78;;;7.74;75.84
75627;BME280;64211;49.404;11.034;2022-11-14T09:52:14;98189.63;;;7.82;75.03
75627;BME280;64211;49.404;11.034;2022-11-14T09:54:51;98191.69;;;7.93;74.23
75627;BME280;64211;49.404;11.034;2022-11-14T09:57:19;98195.44;;;8.05;74.67
75627;BME280;64211;49.404;11.034;2022-11-14T09:59:46;98194.22;;;8.14;74.31
75627;BME280;64211;49.404;11.034;2022-11-14T10:04:49;98188.78;;;8.36;74.07
75627;BME280;64211;49.404;11.034;2022-11-14T10:07:57;98183.06;;;8.45;72.47
75627;BME280;64211;49.404;11.034;2022-11-14T10:19:18;98204.13;;;8.93;71.48
75627;BME280;64211;49.404;11.034;2022-11-14T10:21:58;98200.88;;;9.04;70.57
75627;BME280;64211;49.404;11.034;2022-11-14T10:24:48;98200.00;;;9.17;69.80
75627;BME280;64211;49.404;11.034;2022-11-14T10:27:24;98198.56;;;9.28;70.78
75627;BME280;64211;49.404;11.034;2022-11-14T10:30:14;98203.84;;;9.41;70.08
75627;BME280;64211;49.404;11.034;2022-11-14T10:38:13;98200.06;;;9.75;69.31
75627;BME280;64211;49.404;11.034;2022-11-14T10:40:57;98205.56;;;9.87;69.36
75627;BME280;64211;49.404;11.034;2022-11-14T10:43:43;98200.38;;;9.98;68.57
75627;BME280;64211;49.404;11.034;2022-11-14T10:46:19;98203.00;;;10.05;66.58
75627;BME280;64211;49.404;11.034;2022-11-14T10:48:49;98210.31;;;10.16;67.46
75627;BME280;64211;49.404;11.034;2022-11-14T10:51:21;98197.63;;;10.25;67.88
75627;BME280;64211;49.404;11.034;2022-11-14T10:54:00;98201.00;;;10.38;66.52
75627;BME280;64211;49.404;11.034;2022-11-14T10:56:28;98199.50;;;10.49;66.52
75627;BME280;64211;49.404;11.034;2022-11-14T10:58:54;98203.69;;;10.63;66.38
75627;BME280;64211;49.404;11.034;2022-11-14T11:06:45;98186.25;;;10.92;65.80
75627;BME280;64211;49.404;11.034;2022-11-14T11:09:19;98192.25;;;11.06;65.14
75627;BME280;64211;49.404;11.034;2022-11-14T11:12:16;98187.03;;;11.18;65.42
75627;BME280;64211;49.404;11.034;2022-11-14T11:14:44;98196.38;;;11.27;64.59
75627;BME280;64211;49.404;11.034;2022-11-14T11:19:37;98195.38;;;11.46;64.63
75627;BME280;64211;49.404;11.034;2022-11-14T11:22:04;98188.09;;;11.53;63.12
75627;BME280;64211;49.404;11.034;2022-11-14T11:24:32;98190.91;;;11.58;63.70
75627;BME280;64211;49.404;11.034;2022-11-14T11:27:22;98191.06;;;11.63;62.86
75627;BME280;64211;49.404;11.034;2022-11-14T11:30:02;98187.63;;;11.75;63.82
75627;BME280;64211;49.404;11.034;2022-11-14T11:32:28;98184.75;;;11.76;61.91
75627;BME280;64211;49.404;11.034;2022-11-14T11:34:56;98186.19;;;11.79;61.15
75627;BME280;64211;49.404;11.034;2022-11-14T11:37:27;98190.44;;;11.86;61.84
75627;BME280;64211;49.404;11.034;2022-11-14T11:40:04;98181.72;;;11.91;62.08
75627;BME280;64211;49.404;11.034;2022-11-14T11:42:48;98178.72;;;11.99;61.98
75627;BME280;64211;49.404;11.034;2022-11-14T11:45:37;98181.31;;;12.06;63.17
75627;BME280;64211;49.404;11.034;2022-11-14T11:48:18;98179.03;;;12.09;60.77
75627;BME280;64211;49.404;11.034;2022-11-14T11:50:44;98186.47;;;12.07;60.74
75627;BME280;64211;49.404;11.034;2022-11-14T11:53:22;98175.53;;;12.09;61.76
75627;BME280;64211;49.404;11.034;2022-11-14T11:55:51;98184.38;;;12.09;61.68
75627;BME280;64211;49.404;11.034;2022-11-14T11:58:42;98184.72;;;12.13;60.89
75627;BME280;64211;49.404;11.034;2022-11-14T12:01:13;98186.50;;;12.19;61.56
75627;BME280;64211;49.404;11.034;2022-11-14T12:03:46;98183.13;;;12.23;61.96
75627;BME280;64211;49.404;11.034;2022-11-14T12:06:16;98183.25;;;12.28;61.55
75627;BME280;64211;49.404;11.034;2022-11-14T12:09:06;98175.16;;;12.35;61.97
75627;BME280;64211;49.404;11.034;2022-11-14T12:11:38;98178.41;;;12.37;61.84
75627;BME280;64211;49.404;11.034;2022-11-14T12:19:58;98178.09;;;12.45;62.25
75627;BME280;64211;49.404;11.034;2022-11-14T12:25:37;98169.13;;;12.51;60.92
75627;BME280;64211;49.404;11.034;2022-11-14T12:28:18;98171.16;;;12.56;60.76
75627;BME280;64211;49.404;11.034;2022-11-14T12:30:49;98169.06;;;12.58;61.67
75627;BME280;64211;49.404;11.034;2022-11-14T12:33:27;98168.00;;;12.59;61.61
75627;BME280;64211;49.404;11.034;2022-11-14T12:36:00;98161.97;;;12.64;61.83
75627;BME280;64211;49.404;11.034;2022-11-14T12:38:33;98166.03;;;12.66;61.72
75627;BME280;64211;49.404;11.034;2022-11-14T12:41:05;98165.44;;;12.64;61.07
75627;BME280;64211;49.404;11.034;2022-11-14T12:43:35;98169.06;;;12.70;61.24
75627;BME280;64211;49.404;11.034;2022-11-14T12:46:05;98171.97;;;12.68;60.79
75627;BME280;64211;49.404;11.034;2022-11-14T12:48:36;98171.28;;;12.73;61.22
75627;BME280;64211;49.404;11.034;2022-11-14T12:51:04;98169.19;;;12.75;61.93
75627;BME280;64211;49.404;11.034;2022-11-14T12:59:27;98165.59;;;12.81;60.57
75627;BME280;64211;49.404;11.034;2022-11-14T13:02:19;98153.97;;;12.87;60.59
75627;BME280;64211;49.404;11.034;2022-11-14T13:05:02;98150.00;;;12.89;60.31
75627;BME280;64211;49.404;11.034;2022-11-14T13:08:08;98155.94;;;12.91;60.36
75627;BME280;64211;49.404;11.034;2022-11-14T13:10:39;98163.16;;;12.91;60.50
75627;BME280;64211;49.404;11.034;2022-11-14T13:13:07;98157.09;;;12.96;61.26
75627;BME280;64211;49.404;11.034;2022-11-14T13:15:56;98147.91;;;12.91;60.19
75627;BME280;64211;49.404;11.034;2022-11-14T13:27:29;98128.94;;;12.81;60.84
75627;BME280;64211;49.404;11.034;2022-11-14T13:30:15;98123.25;;;12.78;61.20
75627;BME280;64211;49.404;11.034;2022-11-14T13:35:16;98115.41;;;12.76;61.06
75627;BME280;64211;49.404;11.034;2022-11-14T13:37:55;98113.53;;;12.77;61.03
75627;BME280;64211;49.404;11.034;2022-11-14T13:40:32;98113.78;;;12.75;60.81
75627;BME280;64211;49.404;11.034;2022-11-14T13:45:50;98107.19;;;12.78;61.90
75627;BME280;64211;49.404;11.034;2022-11-14T13:51:00;98111.09;;;12.75;60.20
75627;BME280;64211;49.404;11.034;2022-11-14T13:53:49;98103.88;;;12.76;60.93
75627;BME280;64211;49.404;11.034;2022-11-14T13:56:19;98105.41;;;12.72;60.83
75627;BME280;64211;49.404;11.034;2022-11-14T13:59:20;98098.88;;;12.68;60.94
75627;BME280;64211;49.404;11.034;2022-11-14T14:02:20;98098.31;;;12.66;61.25
75627;BME280;64211;49.404;11.034;2022-11-14T14:05:08;98107.63;;;12.63;60.33
75627;BME280;64211;49.404;11.034;2022-11-14T14:07:51;98103.31;;;12.62;61.21